NO-0072 weather

Airlift Ljosland
Ljosland, Vest-Agder, Norway

Public forecast

Using degrees Celsius for public forecast. Weather courtesy of forecast.io.

METAR (pilot weather report)

Closest report is Kristiansand Airport, 42.0 nm (77.7 km) SSE. Retrieved 2019/05/23 10:20 UTC (0 seconds ago):

ENCN 231020Z 20016KT 9999 -SHRA BKN011 11/11 Q1011

TAF (pilot weather forecast)

Forecast is more than 12 hours old.

Closest forecast is Kristiansand Airport, 42.0 nm (77.7 km) SSE. Retrieved 2016/05/06 12:39 UTC (3 years ago):

TAF TAF ENCN 061100Z 0612/0712 14008KT 9999 FEW040